Latest Weather Observations for Noarlunga

IDS60901

Issued at 7:31 pm CST Saturday 1 August 2015 (issued every 10 minutes, with the page automatically refreshed every 10 minutes)

About weather observations | Map of Adelaide area stations | Latest observations for Adelaide area | Other Formats
Station Details ID: 023885 Name: NOARLUNGA Lat: -35.16 Lon: 138.51 Height: 55.0 m
Data from the previous 72 hours. | See also: Recent months at Noarlunga
Date/Time
CST
Tmp

°C
App
Tmp
°C
Dew
Point
°C
Rel
Hum
%
Delta-T

°C
Wind Press
QNH
hPa
Press
MSL
hPa
Rain
since
9 am
mm
Dir
 
Spd
km/h
Gust
km/h
Spd
kts
Gust
kts
01/07:30pm 8.8 6.8 6.4 85 1.1 ESE 6 7 3 4 - - 0.6
01/07:00pm 9.1 7.4 5.8 80 1.5 WSW 4 6 2 3 - - 0.4
01/06:30pm 9.4 6.7 5.6 77 1.7 E 9 17 5 9 - - 0.2
01/06:00pm 9.4 6.7 5.8 78 1.6 E 9 13 5 7 - - 0.2
01/05:30pm 9.6 7.4 6.0 78 1.7 SE 7 11 4 6 - - 0.2
01/05:00pm 9.8 8.2 6.3 79 1.6 SE 4 6 2 3 - - 0.2
01/04:30pm 10.1 8.1 6.3 77 1.8 SSW 6 11 3 6 - - 0.2
01/04:00pm 10.3 8.6 6.1 75 2.0 SE 4 6 2 3 - - 0.2
01/03:30pm 10.3 7.0 6.3 76 1.9 SE 13 19 7 10 - - 0.2
01/03:00pm 10.5 8.5 6.3 75 2.0 ESE 6 9 3 5 - - 0.2
01/02:30pm 10.6 8.3 5.6 71 2.3 E 7 17 4 9 - - 0.2
01/02:00pm 10.7 7.3 5.7 71 2.3 ESE 13 19 7 10 - - 0.2
01/01:30pm 10.4 7.5 6.7 78 1.7 SSE 11 15 6 8 - - 0.2
01/01:00pm 11.2 9.2 7.3 77 1.9 WSW 7 13 4 7 - - 0.2
01/12:30pm 11.1 9.3 8.0 81 1.5 SE 7 13 4 7 - - 0.2
01/12:00pm 11.0 10.2 8.2 83 1.4 NW 2 4 1 2 - - 0.0
01/11:30am 11.1 10.2 7.6 79 1.7 S 2 6 1 3 - - 0.0
01/11:00am 11.1 9.5 8.0 81 1.5 ESE 6 9 3 5 - - 0.0
01/10:30am 10.8 9.6 8.2 84 1.3 ESE 4 7 2 4 - - 0.0
01/10:00am 10.5 8.8 8.3 86 1.1 E 7 9 4 5 - - 0.0
01/09:30am 10.4 9.2 8.0 85 1.2 ESE 4 6 2 3 - - 0.0
01/09:00am 10.4 7.5 8.0 85 1.2 S 13 17 7 9 - - 3.6
01/08:30am 10.4 8.0 8.5 88 0.9 SSW 11 17 6 9 - - 3.6
01/08:00am 10.4 9.0 8.8 90 0.8 SSE 6 7 3 4 - - 3.6
01/07:30am 10.5 9.1 8.9 90 0.8 S 6 7 3 4 - - 3.6
01/07:00am 10.6 9.2 9.0 90 0.8 S 6 9 3 5 - - 3.2
01/06:30am 10.8 9.3 9.2 90 0.8 SSW 7 11 4 6 - - 3.2
01/06:00am 10.9 9.9 9.0 88 0.9 S 4 6 2 3 - - 3.0
01/05:30am 11.0 9.4 8.9 87 1.0 SSW 7 11 4 6 - - 2.8
01/05:00am 11.1 8.7 8.8 86 1.1 SW 11 17 6 9 - - 2.8
01/04:30am 10.9 7.5 9.0 88 0.9 SW 17 28 9 15 - - 2.8
01/04:00am 11.1 7.4 9.5 90 0.8 SW 19 28 10 15 - - 2.8
01/03:30am 12.6 9.3 11.0 90 0.8 N 19 32 10 17 - - 0.8
01/03:00am 12.6 9.7 11.0 90 0.8 N 17 24 9 13 - - 0.6
01/02:30am 12.7 9.2 10.9 89 0.9 N 20 28 11 15 - - 0.4
01/02:00am 13.1 9.6 10.8 86 1.2 N 20 32 11 17 - - 0.2
01/01:30am 12.9 8.9 10.6 86 1.2 N 22 32 12 17 - - 0.2
01/01:00am 12.8 8.5 10.7 87 1.1 N 24 35 13 19 - - 0.2
01/12:30am 12.9 8.1 10.4 85 1.3 N 26 37 14 20 - - 0.2
01/12:00am 12.9 8.0 10.1 83 1.4 N 26 37 14 20 - - 0.2
 
Date/Time
CST
Tmp

°C
App
Tmp
°C
Dew
Point
°C
Rel
Hum
%
Delta-T

°C
Wind Press
QNH
hPa
Press
MSL
hPa
Rain
since
9 am
mm
Dir
 
Spd
km/h
Gust
km/h
Spd
kts
Gust
kts
31/11:30pm 12.8 8.2 9.8 82 1.5 N 24 35 13 19 - - 0.2
31/11:00pm 13.3 9.0 9.4 77 2.0 N 22 33 12 18 - - 0.0
31/10:30pm 13.6 8.8 8.7 72 2.5 N 24 35 13 19 - - 0.0
31/10:00pm 14.2 10.0 8.4 68 2.9 N 20 30 11 16 - - 0.0
31/09:30pm 14.5 10.4 8.0 65 3.2 N 19 30 10 16 - - 0.0
31/09:00pm 14.5 10.4 8.0 65 3.2 N 19 24 10 13 - - 0.0
31/08:30pm 14.2 10.5 7.9 66 3.1 N 17 24 9 13 - - 0.0
31/08:00pm 13.8 10.4 7.8 67 3.0 N 15 22 8 12 - - 0.0
31/07:30pm 13.8 10.5 8.0 68 2.9 N 15 19 8 10 - - 0.0
31/07:00pm 13.4 10.4 7.8 69 2.8 N 13 17 7 9 - - 0.0
31/06:30pm 13.6 11.4 7.8 68 2.9 NNW 9 15 5 8 - - 0.0
31/06:00pm 13.6 11.0 7.6 67 3.0 NNW 11 15 6 8 - - 0.0
31/05:30pm 13.6 10.5 7.4 66 3.0 N 13 19 7 10 - - 0.0
31/05:00pm 13.8 10.4 7.6 66 3.1 N 15 22 8 12 - - 0.0
31/04:30pm 13.7 10.7 7.5 66 3.0 N 13 20 7 11 - - 0.0
31/04:00pm 13.8 10.3 7.1 64 3.3 NNW 15 20 8 11 - - 0.0
31/03:30pm 14.2 10.2 6.8 61 3.6 NNW 17 26 9 14 - - 0.0
31/03:00pm 14.3 10.3 6.6 60 3.7 NNW 17 28 9 15 - - 0.0
31/02:30pm 14.6 10.1 6.2 57 4.0 NNW 19 28 10 15 - - 0.0
31/02:00pm 14.4 9.6 5.7 56 4.1 NNW 20 33 11 18 - - 0.0
31/01:30pm 14.1 9.3 5.7 57 4.0 N 20 28 11 15 - - 0.0
31/01:00pm 13.5 8.1 4.6 55 4.1 N 22 32 12 17 - - 0.0
31/12:30pm 12.9 9.1 5.6 61 3.4 N 15 24 8 13 - - 0.0
31/12:00pm 12.0 7.9 4.5 60 3.4 NNW 15 22 8 12 - - 0.0
31/11:30am 11.5 7.8 4.5 62 3.2 NNW 13 17 7 9 - - 0.0
31/11:00am 11.7 8.1 4.9 63 3.1 NNW 13 19 7 10 - - 0.0
31/10:30am 11.8 7.7 4.1 59 3.5 NNW 15 22 8 12 - - 0.0
31/10:00am 11.2 8.8 5.1 66 2.8 NNW 7 15 4 8 - - 0.0
31/09:30am 10.5 8.2 4.9 68 2.5 NNW 6 7 3 4 - - 0.0
31/09:00am 9.6 7.8 5.4 75 1.9 N 4 7 2 4 - - 0.4
31/08:30am 7.7 5.3 4.1 78 1.6 NNE 6 9 3 5 - - 0.4
31/08:00am 6.6 3.9 3.6 81 1.3 NE 7 11 4 6 - - 0.4
31/07:30am 5.5 2.5 2.3 80 1.3 ENE 7 9 4 5 - - 0.4
31/07:00am 4.7 2.2 1.6 80 1.2 ENE 4 6 2 3 - - 0.4
31/06:30am 5.3 2.3 2.0 79 1.3 NE 7 11 4 6 - - 0.4
31/06:00am 5.7 1.6 2.5 80 1.3 NE 13 15 7 8 - - 0.4
31/05:30am 4.7 1.9 1.9 82 1.1 ENE 6 7 3 4 - - 0.4
31/05:00am 5.7 2.8 2.7 81 1.2 ENE 7 9 4 5 - - 0.4
31/04:30am 5.5 2.6 2.7 82 1.1 ENE 7 9 4 5 - - 0.4
31/04:00am 5.4 2.5 2.6 82 1.1 E 7 9 4 5 - - 0.4
31/03:30am 5.6 2.7 2.6 81 1.2 E 7 11 4 6 - - 0.4
31/03:00am 5.7 3.0 2.4 79 1.3 E 6 7 3 4 - - 0.4
31/02:30am 6.4 3.5 2.7 77 1.5 E 7 9 4 5 - - 0.4
31/02:00am 6.1 3.5 3.1 81 1.3 E 6 7 3 4 - - 0.4
31/01:30am 5.9 3.7 3.1 82 1.2 E 4 6 2 3 - - 0.4
31/01:00am 6.4 4.6 3.6 82 1.2 E 2 4 1 2 - - 0.4
31/12:30am 6.8 4.6 3.4 79 1.4 E 4 4 2 2 - - 0.4
31/12:00am 7.7 5.6 3.9 77 1.6 E 4 6 2 3 - - 0.4
 
Date/Time
CST
Tmp

°C
App
Tmp
°C
Dew
Point
°C
Rel
Hum
%
Delta-T

°C
Wind Press
QNH
hPa
Press
MSL
hPa
Rain
since
9 am
mm
Dir
 
Spd
km/h
Gust
km/h
Spd
kts
Gust
kts
30/11:30pm 7.9 5.5 4.5 79 1.5 ESE 6 6 3 3 - - 0.4
30/11:00pm 8.1 6.2 5.0 81 1.4 SE 4 6 2 3 - - 0.4
30/10:30pm 8.3 6.5 5.6 83 1.2 SE 4 6 2 3 - - 0.4
30/10:00pm 9.1 8.3 6.4 83 1.3 CALM 0 6 0 3 - - 0.4
30/09:30pm 9.7 7.8 6.8 82 1.4 SE 6 7 3 4 - - 0.4
30/09:00pm 9.9 8.4 6.8 81 1.5 SE 4 7 2 4 - - 0.4
30/08:30pm 10.5 8.6 7.4 81 1.5 SSE 7 9 4 5 - - 0.4
30/08:00pm 11.4 9.4 8.6 83 1.4 SSW 9 17 5 9 - - 0.4
30/07:30pm 11.5 10.6 9.2 86 1.2 WSW 4 6 2 3 - - 0.4
30/07:00pm 11.5 10.3 9.4 87 1.1 SW 6 9 3 5 - - 0.4
30/06:30pm 11.5 9.3 9.4 87 1.1 SW 11 15 6 8 - - 0.4
30/06:00pm 11.7 9.2 9.8 88 1.0 SW 13 20 7 11 - - 0.4
30/05:30pm 12.3 8.6 9.3 82 1.5 W 19 32 10 17 - - 0.2
30/05:00pm 13.1 9.9 9.9 81 1.6 NNW 17 28 9 15 - - 0.0
30/04:30pm 13.1 9.4 9.5 79 1.8 NNW 19 28 10 15 - - 0.0
30/04:00pm 13.2 8.8 8.9 75 2.2 NNW 22 32 12 17 - - 0.0
30/03:30pm 12.7 8.6 8.8 77 2.0 NNW 20 30 11 16 - - 0.0
30/03:00pm 12.6 7.7 8.5 76 2.0 NW 24 39 13 21 - - 0.0
30/02:30pm 13.3 9.1 8.2 71 2.5 NW 20 32 11 17 - - 0.0
30/02:00pm 13.4 9.0 7.4 67 2.9 NW 20 35 11 19 - - 0.0
30/01:30pm 13.6 7.2 5.3 57 3.9 NNW 28 44 15 24 - - 0.0
30/01:00pm 13.5 7.6 5.9 60 3.6 NNW 26 37 14 20 - - 0.0
30/12:30pm 13.0 6.2 4.9 58 3.7 NNW 30 41 16 22 - - 0.0
30/12:00pm 12.8 5.9 4.8 58 3.7 NNW 30 44 16 24 - - 0.0
30/11:30am 12.6 5.2 4.8 59 3.6 NNW 33 50 18 27 - - 0.0
30/11:22am 12.6 4.8 4.8 59 3.6 N 35 54 19 29 - - 0.0
30/11:00am 13.4 5.2 4.8 56 4.0 N 37 54 20 29 - - 0.0
30/10:30am 12.2 3.8 3.7 56 3.8 N 37 57 20 31 - - 0.0
30/10:00am 12.5 3.2 2.9 52 4.2 N 41 59 22 32 - - 0.0
30/09:46am 11.8 2.4 2.5 53 4.0 N 41 63 22 34 - - 0.0
30/09:30am 11.9 3.1 1.5 49 4.4 N 37 52 20 28 - - 0.0
30/09:13am 12.0 3.2 1.3 48 4.5 N 37 65 20 35 - - 0.0
30/09:00am 12.4 2.5 1.7 48 4.6 N 43 57 23 31 - - 0.0
30/08:30am 11.3 2.1 1.0 49 4.3 N 39 54 21 29 - - 0.0
30/08:04am 11.2 1.5 0.6 48 4.4 N 41 61 22 33 - - 0.0
30/08:00am 11.0 2.1 0.7 49 4.3 N 37 54 20 29 - - 0.0
30/07:30am 10.8 2.2 0.5 49 4.2 N 35 52 19 28 - - 0.0
30/07:25am 10.8 2.8 0.2 48 4.3 N 32 52 17 28 - - 0.0
30/07:00am 10.8 1.8 0.0 47 4.4 N 37 52 20 28 - - 0.0
30/06:43am 10.6 2.4 0.3 49 4.2 N 33 57 18 31 - - 0.0
30/06:30am 10.7 2.4 -0.1 47 4.4 N 33 43 18 23 - - 0.0
30/06:00am 10.9 2.3 0.3 48 4.3 N 35 56 19 30 - - 0.0
30/05:54am 10.7 2.5 0.4 49 4.2 N 33 56 18 30 - - 0.0
30/05:30am 10.7 2.1 0.4 49 4.2 N 35 52 19 28 - - 0.0
30/05:14am 10.9 2.8 0.0 47 4.4 N 32 52 17 28 - - 0.0
30/05:00am 10.8 2.8 0.5 49 4.2 N 32 48 17 26 - - 0.0
30/04:56am 11.3 4.1 0.4 47 4.5 N 28 48 15 26 - - 0.0
30/04:30am 11.4 4.6 0.5 47 4.5 N 26 39 14 21 - - 0.0
30/04:00am 11.7 4.4 -0.1 44 4.8 N 28 44 15 24 - - 0.0
30/03:30am 11.5 4.2 0.0 45 4.7 N 28 39 15 21 - - 0.0
30/03:00am 12.0 3.9 -0.2 43 5.0 N 32 46 17 25 - - 0.0
30/02:30am 11.7 4.4 -0.1 44 4.8 N 28 41 15 22 - - 0.0
30/02:00am 11.9 3.7 0.1 44 4.9 N 33 44 18 24 - - 0.0
30/01:48am 11.9 4.6 -0.3 43 5.0 N 28 50 15 27 - - 0.0
30/01:30am 11.9 4.5 -0.6 42 5.1 N 28 39 15 21 - - 0.0
30/01:00am 11.7 5.5 -0.1 44 4.8 N 22 33 12 18 - - 0.0
30/12:30am 11.8 5.6 0.0 44 4.8 NNE 22 33 12 18 - - 0.0
30/12:00am 11.7 5.6 0.5 46 4.6 N 22 32 12 17 - - 0.0
 
Date/Time
CST
Tmp

°C
App
Tmp
°C
Dew
Point
°C
Rel
Hum
%
Delta-T

°C
Wind Press
QNH
hPa
Press
MSL
hPa
Rain
since
9 am
mm
Dir
 
Spd
km/h
Gust
km/h
Spd
kts
Gust
kts
29/11:30pm 11.6 6.1 0.7 47 4.5 NNE 19 30 10 16 - - 0.0
29/11:00pm 11.4 6.0 1.4 50 4.2 NNE 19 28 10 15 - - 0.0
29/10:30pm 11.2 5.9 2.0 53 3.9 NNE 19 28 10 15 - - 0.0
29/10:00pm 11.0 5.6 2.3 55 3.7 NNE 20 35 11 19 - - 0.0
29/09:30pm 11.2 5.4 2.5 55 3.8 NNE 22 33 12 18 - - 0.0
29/09:00pm 11.3 6.2 3.1 57 3.6 NNE 19 28 10 15 - - 0.0
29/08:30pm 11.2 5.9 3.0 57 3.6 NNE 20 28 11 15 - - 0.0
29/08:00pm 11.2 5.5 3.0 57 3.6 N 22 32 12 17 - - 0.0

Latest Capital City Observations: Canberra | Sydney | Melbourne | Brisbane | Adelaide | Perth | Hobart | Darwin

Other Formats:

Comma delimited format used in spreadsheet applications
http://www.bom.gov.au/fwo/IDS60901/IDS60901.94808.axf

JavaScript Object Notation format (JSON) in row-major order
http://www.bom.gov.au/fwo/IDS60901/IDS60901.94808.json